sensor_id;sensor_type;location;lat;lon;timestamp;pressure;altitude;pressure_sealevel;temperature;humidity
64460;BME280;50828;53.756;21.140;2023-01-08T00:03:21;100062.96;;;1.86;74.98
64460;BME280;50828;53.756;21.140;2023-01-08T00:08:31;100051.85;;;1.86;74.93
64460;BME280;50828;53.756;21.140;2023-01-08T00:13:40;100045.95;;;1.86;74.79
64460;BME280;50828;53.756;21.140;2023-01-08T00:18:48;100046.98;;;1.87;74.97
64460;BME280;50828;53.756;21.140;2023-01-08T00:23:56;100042.29;;;1.88;74.83
64460;BME280;50828;53.756;21.140;2023-01-08T00:29:05;100046.11;;;1.89;74.89
64460;BME280;50828;53.756;21.140;2023-01-08T00:34:13;100038.98;;;1.88;74.95
64460;BME280;50828;53.756;21.140;2023-01-08T00:39:22;100038.80;;;1.89;75.11
64460;BME280;50828;53.756;21.140;2023-01-08T00:44:30;100040.38;;;1.89;75.07
64460;BME280;50828;53.756;21.140;2023-01-08T00:49:38;100043.67;;;1.90;74.93
64460;BME280;50828;53.756;21.140;2023-01-08T00:54:47;100035.34;;;1.90;74.85
64460;BME280;50828;53.756;21.140;2023-01-08T00:59:55;100032.21;;;1.90;74.85
64460;BME280;50828;53.756;21.140;2023-01-08T01:05:04;100030.64;;;1.90;75.07
64460;BME280;50828;53.756;21.140;2023-01-08T01:10:14;100021.77;;;1.91;74.85
64460;BME280;50828;53.756;21.140;2023-01-08T01:15:22;100014.84;;;1.90;75.14
64460;BME280;50828;53.756;21.140;2023-01-08T01:20:31;100011.71;;;1.90;75.09
64460;BME280;50828;53.756;21.140;2023-01-08T01:25:40;100005.98;;;1.90;75.16
64460;BME280;50828;53.756;21.140;2023-01-08T01:30:56;100001.46;;;1.90;74.97
64460;BME280;50828;53.756;21.140;2023-01-08T01:36:05;100009.45;;;1.90;75.12
64460;BME280;50828;53.756;21.140;2023-01-08T01:41:21;100011.88;;;1.90;75.07
64460;BME280;50828;53.756;21.140;2023-01-08T01:46:38;100011.35;;;1.91;75.11
64460;BME280;50828;53.756;21.140;2023-01-08T01:51:49;100009.09;;;1.91;74.99
64460;BME280;50828;53.756;21.140;2023-01-08T01:57:00;100010.66;;;1.91;74.96
64460;BME280;50828;53.756;21.140;2023-01-08T02:02:09;100009.09;;;1.91;75.06
64460;BME280;50828;53.756;21.140;2023-01-08T02:07:21;99996.60;;;1.91;75.08
64460;BME280;50828;53.756;21.140;2023-01-08T02:12:38;99988.41;;;1.92;74.97
64460;BME280;50828;53.756;21.140;2023-01-08T02:17:52;99972.97;;;1.92;75.05
64460;BME280;50828;53.756;21.140;2023-01-08T02:23:13;99971.91;;;1.94;75.03
64460;BME280;50828;53.756;21.140;2023-01-08T02:28:26;99968.26;;;1.95;75.30
64460;BME280;50828;53.756;21.140;2023-01-08T02:33:36;99961.65;;;1.96;75.09
64460;BME280;50828;53.756;21.140;2023-01-08T02:38:52;99950.52;;;1.97;75.18
64460;BME280;50828;53.756;21.140;2023-01-08T02:44:06;99939.41;;;1.98;75.25
64460;BME280;50828;53.756;21.140;2023-01-08T02:49:17;99940.61;;;1.98;75.23
64460;BME280;50828;53.756;21.140;2023-01-08T02:54:33;99941.49;;;1.98;75.22
64460;BME280;50828;53.756;21.140;2023-01-08T02:59:43;99935.58;;;1.99;75.25
64460;BME280;50828;53.756;21.140;2023-01-08T03:04:53;99925.23;;;1.90;75.15
64460;BME280;50828;53.756;21.140;2023-01-08T03:10:04;99940.27;;;1.98;75.03
64460;BME280;50828;53.756;21.140;2023-01-08T03:15:15;99937.50;;;1.97;74.94
64460;BME280;50828;53.756;21.140;2023-01-08T03:20:27;99932.99;;;1.96;75.00
64460;BME280;50828;53.756;21.140;2023-01-08T03:25:39;99925.88;;;1.96;75.10
64460;BME280;50828;53.756;21.140;2023-01-08T03:30:50;99919.79;;;1.97;75.18
64460;BME280;50828;53.756;21.140;2023-01-08T03:36:02;99912.50;;;1.95;75.14
64460;BME280;50828;53.756;21.140;2023-01-08T03:41:15;99913.54;;;1.96;75.29
64460;BME280;50828;53.756;21.140;2023-01-08T03:46:31;99911.13;;;1.93;75.02
64460;BME280;50828;53.756;21.140;2023-01-08T03:51:44;99912.67;;;1.94;75.05
64460;BME280;50828;53.756;21.140;2023-01-08T03:56:53;99910.60;;;1.94;75.13
64460;BME280;50828;53.756;21.140;2023-01-08T04:02:02;99903.13;;;1.94;75.26
64460;BME280;50828;53.756;21.140;2023-01-08T04:07:11;99914.59;;;1.95;75.12
64460;BME280;50828;53.756;21.140;2023-01-08T04:12:19;99913.56;;;1.94;75.37
64460;BME280;50828;53.756;21.140;2023-01-08T04:17:30;99910.95;;;1.95;75.20
64460;BME280;50828;53.756;21.140;2023-01-08T04:22:38;99910.41;;;1.95;75.28
64460;BME280;50828;53.756;21.140;2023-01-08T04:27:47;99910.42;;;1.96;75.16
64460;BME280;50828;53.756;21.140;2023-01-08T04:32:55;99908.68;;;1.96;75.20
64460;BME280;50828;53.756;21.140;2023-01-08T04:38:04;99902.41;;;1.97;75.30
64460;BME280;50828;53.756;21.140;2023-01-08T04:43:12;99903.45;;;1.97;75.24
64460;BME280;50828;53.756;21.140;2023-01-08T04:48:21;99902.75;;;1.99;75.24
64460;BME280;50828;53.756;21.140;2023-01-08T04:53:31;99896.31;;;2.00;75.27
64460;BME280;50828;53.756;21.140;2023-01-08T04:58:40;99891.60;;;2.01;75.30
64460;BME280;50828;53.756;21.140;2023-01-08T05:03:51;99890.89;;;2.04;75.30
64460;BME280;50828;53.756;21.140;2023-01-08T05:08:59;99888.27;;;2.06;75.26
64460;BME280;50828;53.756;21.140;2023-01-08T05:14:08;99889.98;;;2.08;75.37
64460;BME280;50828;53.756;21.140;2023-01-08T05:19:17;99887.19;;;2.10;75.23
64460;BME280;50828;53.756;21.140;2023-01-08T05:24:25;99886.48;;;2.11;75.37
64460;BME280;50828;53.756;21.140;2023-01-08T05:29:33;99880.39;;;2.13;75.26
64460;BME280;50828;53.756;21.140;2023-01-08T05:34:41;99879.31;;;2.15;75.30
64460;BME280;50828;53.756;21.140;2023-01-08T05:39:50;99882.79;;;2.16;75.36
64460;BME280;50828;53.756;21.140;2023-01-08T05:44:58;99878.78;;;2.17;75.35
64460;BME280;50828;53.756;21.140;2023-01-08T05:50:08;99871.98;;;2.19;75.53
64460;BME280;50828;53.756;21.140;2023-01-08T05:55:16;99868.15;;;2.21;75.36
64460;BME280;50828;53.756;21.140;2023-01-08T06:00:25;99865.69;;;2.23;75.34
64460;BME280;50828;53.756;21.140;2023-01-08T06:05:34;99859.08;;;2.24;75.34
64460;BME280;50828;53.756;21.140;2023-01-08T06:10:42;99851.23;;;2.27;75.53
64460;BME280;50828;53.756;21.140;2023-01-08T06:15:51;99841.30;;;2.29;75.49
64460;BME280;50828;53.756;21.140;2023-01-08T06:21:00;99831.36;;;2.32;75.59
64460;BME280;50828;53.756;21.140;2023-01-08T06:26:10;99823.52;;;2.33;75.55
64460;BME280;50828;53.756;21.140;2023-01-08T06:31:18;99822.27;;;2.36;75.37
64460;BME280;50828;53.756;21.140;2023-01-08T06:36:26;99830.07;;;2.38;75.55
64460;BME280;50828;53.756;21.140;2023-01-08T06:41:35;99828.52;;;2.38;75.52
64460;BME280;50828;53.756;21.140;2023-01-08T06:46:44;99826.77;;;2.38;75.37
64460;BME280;50828;53.756;21.140;2023-01-08T06:51:53;99829.36;;;2.39;75.31
64460;BME280;50828;53.756;21.140;2023-01-08T06:57:02;99822.93;;;2.40;75.55
64460;BME280;50828;53.756;21.140;2023-01-08T07:02:14;99818.23;;;2.41;75.28
64460;BME280;50828;53.756;21.140;2023-01-08T07:07:23;99816.31;;;2.41;75.38
64460;BME280;50828;53.756;21.140;2023-01-08T07:12:32;99822.23;;;2.41;75.18
64460;BME280;50828;53.756;21.140;2023-01-08T07:17:40;99822.23;;;2.40;75.36
64460;BME280;50828;53.756;21.140;2023-01-08T07:22:49;99815.78;;;2.41;75.21
64460;BME280;50828;53.756;21.140;2023-01-08T07:27:58;99802.39;;;2.42;75.35
64460;BME280;50828;53.756;21.140;2023-01-08T07:33:06;99779.29;;;2.42;75.29
64460;BME280;50828;53.756;21.140;2023-01-08T07:38:15;99762.24;;;2.43;75.32
64460;BME280;50828;53.756;21.140;2023-01-08T07:43:23;99757.02;;;2.43;75.33
64460;BME280;50828;53.756;21.140;2023-01-08T07:48:32;99754.06;;;2.43;75.26
64460;BME280;50828;53.756;21.140;2023-01-08T07:53:40;99743.83;;;2.42;75.37
64460;BME280;50828;53.756;21.140;2023-01-08T07:58:49;99740.70;;;2.43;75.43
64460;BME280;50828;53.756;21.140;2023-01-08T08:03:57;99743.45;;;2.43;75.29
64460;BME280;50828;53.756;21.140;2023-01-08T08:09:06;99736.70;;;2.43;75.26
64460;BME280;50828;53.756;21.140;2023-01-08T08:14:14;99732.85;;;2.44;75.21
64460;BME280;50828;53.756;21.140;2023-01-08T08:19:23;99730.39;;;2.45;75.36
64460;BME280;50828;53.756;21.140;2023-01-08T08:24:31;99727.94;;;2.47;75.29
64460;BME280;50828;53.756;21.140;2023-01-08T08:29:40;99731.22;;;2.48;75.36
64460;BME280;50828;53.756;21.140;2023-01-08T08:34:48;99723.73;;;2.50;75.24
64460;BME280;50828;53.756;21.140;2023-01-08T08:39:57;99714.84;;;2.51;75.30
64460;BME280;50828;53.756;21.140;2023-01-08T08:45:07;99716.94;;;2.51;75.23
64460;BME280;50828;53.756;21.140;2023-01-08T08:50:16;99727.20;;;2.52;75.09
64460;BME280;50828;53.756;21.140;2023-01-08T08:55:24;99735.34;;;2.52;75.03
64460;BME280;50828;53.756;21.140;2023-01-08T09:00:33;99735.35;;;2.52;75.15
64460;BME280;50828;53.756;21.140;2023-01-08T09:05:42;99725.25;;;2.53;75.16
64460;BME280;50828;53.756;21.140;2023-01-08T09:10:51;99728.54;;;2.54;75.04
64460;BME280;50828;53.756;21.140;2023-01-08T09:16:00;99718.27;;;2.55;74.90
64460;BME280;50828;53.756;21.140;2023-01-08T09:21:09;99725.05;;;2.55;75.03
64460;BME280;50828;53.756;21.140;2023-01-08T09:26:17;99723.81;;;2.56;75.07
64460;BME280;50828;53.756;21.140;2023-01-08T09:31:28;99725.55;;;2.56;74.99
64460;BME280;50828;53.756;21.140;2023-01-08T09:36:36;99731.83;;;2.56;74.91
64460;BME280;50828;53.756;21.140;2023-01-08T09:41:47;99722.07;;;2.57;74.85
64460;BME280;50828;53.756;21.140;2023-01-08T09:46:56;99716.86;;;2.56;74.89
64460;BME280;50828;53.756;21.140;2023-01-08T09:52:07;99707.66;;;2.55;74.87
64460;BME280;50828;53.756;21.140;2023-01-08T09:57:19;99702.63;;;2.55;74.82
64460;BME280;50828;53.756;21.140;2023-01-08T10:02:28;99699.66;;;2.55;74.80
64460;BME280;50828;53.756;21.140;2023-01-08T10:07:39;99699.16;;;2.54;74.75
64460;BME280;50828;53.756;21.140;2023-01-08T10:12:50;99698.11;;;2.55;74.81
64460;BME280;50828;53.756;21.140;2023-01-08T10:18:01;99686.80;;;2.55;74.85
64460;BME280;50828;53.756;21.140;2023-01-08T10:23:15;99677.75;;;2.56;74.76
64460;BME280;50828;53.756;21.140;2023-01-08T10:28:26;99663.67;;;2.56;74.89
64460;BME280;50828;53.756;21.140;2023-01-08T10:33:40;99662.60;;;2.58;74.72
64460;BME280;50828;53.756;21.140;2023-01-08T10:38:53;99661.20;;;2.59;74.66
64460;BME280;50828;53.756;21.140;2023-01-08T10:44:05;99659.25;;;2.61;74.98
64460;BME280;50828;53.756;21.140;2023-01-08T10:49:19;99650.03;;;2.61;74.94
64460;BME280;50828;53.756;21.140;2023-01-08T10:54:34;99625.77;;;2.57;74.69
64460;BME280;50828;53.756;21.140;2023-01-08T10:59:43;99632.77;;;2.64;74.63
64460;BME280;50828;53.756;21.140;2023-01-08T11:04:52;99628.94;;;2.65;74.79
64460;BME280;50828;53.756;21.140;2023-01-08T11:10:02;99622.85;;;2.65;74.74
64460;BME280;50828;53.756;21.140;2023-01-08T11:15:29;99609.80;;;2.66;74.57
64460;BME280;50828;53.756;21.140;2023-01-08T11:20:39;99591.54;;;2.65;74.45
64460;BME280;50828;53.756;21.140;2023-01-08T11:25:54;99579.38;;;2.65;74.44
64460;BME280;50828;53.756;21.140;2023-01-08T11:31:13;99577.45;;;2.66;74.28
64460;BME280;50828;53.756;21.140;2023-01-08T11:36:25;99567.53;;;2.67;74.35
64460;BME280;50828;53.756;21.140;2023-01-08T11:41:47;99560.58;;;2.67;74.27
64460;BME280;50828;53.756;21.140;2023-01-08T11:47:10;99566.62;;;2.70;74.28
64460;BME280;50828;53.756;21.140;2023-01-08T11:52:36;99561.73;;;2.70;74.17
64460;BME280;50828;53.756;21.140;2023-01-08T11:57:58;99554.77;;;2.71;74.41
64460;BME280;50828;53.756;21.140;2023-01-08T12:03:18;99551.80;;;2.72;74.29
64460;BME280;50828;53.756;21.140;2023-01-08T12:08:39;99554.04;;;2.73;74.05
64460;BME280;50828;53.756;21.140;2023-01-08T12:14:10;99549.31;;;2.74;74.11
64460;BME280;50828;53.756;21.140;2023-01-08T12:19:40;99551.38;;;2.76;74.11
64460;BME280;50828;53.756;21.140;2023-01-08T12:25:10;99560.92;;;2.77;74.01
64460;BME280;50828;53.756;21.140;2023-01-08T12:30:36;99556.22;;;2.78;74.07
64460;BME280;50828;53.756;21.140;2023-01-08T12:35:53;99553.61;;;2.78;74.16
64460;BME280;50828;53.756;21.140;2023-01-08T12:41:06;99550.82;;;2.78;73.87
64460;BME280;50828;53.756;21.140;2023-01-08T12:46:17;99552.21;;;2.78;73.97
64460;BME280;50828;53.756;21.140;2023-01-08T12:51:30;99547.34;;;2.78;73.75
64460;BME280;50828;53.756;21.140;2023-01-08T12:56:48;99549.27;;;2.78;74.03
64460;BME280;50828;53.756;21.140;2023-01-08T13:02:12;99538.48;;;2.78;73.89
64460;BME280;50828;53.756;21.140;2023-01-08T13:07:27;99535.50;;;2.80;73.64
64460;BME280;50828;53.756;21.140;2023-01-08T13:12:39;99533.60;;;2.79;73.76
64460;BME280;50828;53.756;21.140;2023-01-08T13:17:50;99530.30;;;2.79;73.84
64460;BME280;50828;53.756;21.140;2023-01-08T13:23:00;99523.17;;;2.78;73.81
64460;BME280;50828;53.756;21.140;2023-01-08T13:28:27;99520.41;;;2.77;73.78
64460;BME280;50828;53.756;21.140;2023-01-08T13:33:41;99509.96;;;2.78;73.57
64460;BME280;50828;53.756;21.140;2023-01-08T13:39:02;99501.80;;;2.77;73.56
64460;BME280;50828;53.756;21.140;2023-01-08T13:44:20;99499.75;;;2.75;73.65
64460;BME280;50828;53.756;21.140;2023-01-08T13:49:35;99491.98;;;2.72;73.47
64460;BME280;50828;53.756;21.140;2023-01-08T13:54:49;99478.98;;;2.70;73.15
64460;BME280;50828;53.756;21.140;2023-01-08T13:59:59;99476.58;;;2.67;73.15
64460;BME280;50828;53.756;21.140;2023-01-08T14:05:19;99486.70;;;2.65;73.08
64460;BME280;50828;53.756;21.140;2023-01-08T14:10:29;99486.23;;;2.62;73.18
64460;BME280;50828;53.756;21.140;2023-01-08T14:15:39;99493.42;;;2.60;72.84
64460;BME280;50828;53.756;21.140;2023-01-08T14:20:49;99490.16;;;2.56;72.95
64460;BME280;50828;53.756;21.140;2023-01-08T14:26:00;99491.95;;;2.53;72.71
64460;BME280;50828;53.756;21.140;2023-01-08T14:31:23;99484.72;;;2.50;72.72
64460;BME280;50828;53.756;21.140;2023-01-08T14:36:32;99481.84;;;2.45;72.68
64460;BME280;50828;53.756;21.140;2023-01-08T14:41:42;99482.39;;;2.43;72.74
64460;BME280;50828;53.756;21.140;2023-01-08T14:47:17;99472.20;;;2.39;72.75
64460;BME280;50828;53.756;21.140;2023-01-08T14:52:26;99466.17;;;2.36;72.48
64460;BME280;50828;53.756;21.140;2023-01-08T14:57:35;99462.60;;;2.32;72.64
64460;BME280;50828;53.756;21.140;2023-01-08T15:02:46;99467.54;;;2.28;72.46
64460;BME280;50828;53.756;21.140;2023-01-08T15:08:01;99462.38;;;2.25;72.57
64460;BME280;50828;53.756;21.140;2023-01-08T15:13:22;99468.70;;;2.21;72.36
64460;BME280;50828;53.756;21.140;2023-01-08T15:18:30;99458.16;;;2.17;72.34
64460;BME280;50828;53.756;21.140;2023-01-08T15:23:41;99457.88;;;2.14;72.54
64460;BME280;50828;53.756;21.140;2023-01-08T15:28:55;99471.98;;;2.11;72.43
64460;BME280;50828;53.756;21.140;2023-01-08T15:34:08;99473.26;;;2.08;72.43
64460;BME280;50828;53.756;21.140;2023-01-08T15:39:18;99476.06;;;2.05;72.30
64460;BME280;50828;53.756;21.140;2023-01-08T15:44:27;99468.47;;;2.02;72.51
64460;BME280;50828;53.756;21.140;2023-01-08T15:49:36;99459.14;;;1.99;72.36
64460;BME280;50828;53.756;21.140;2023-01-08T15:54:45;99447.20;;;1.96;72.46
64460;BME280;50828;53.756;21.140;2023-01-08T15:59:53;99438.58;;;1.92;72.59
64460;BME280;50828;53.756;21.140;2023-01-08T16:05:02;99441.41;;;1.89;72.33
64460;BME280;50828;53.756;21.140;2023-01-08T16:10:12;99438.16;;;1.86;72.63
64460;BME280;50828;53.756;21.140;2023-01-08T16:15:21;99439.09;;;1.81;72.47
64460;BME280;50828;53.756;21.140;2023-01-08T16:20:29;99445.39;;;1.79;72.64
64460;BME280;50828;53.756;21.140;2023-01-08T16:25:39;99433.79;;;1.76;72.62
64460;BME280;50828;53.756;21.140;2023-01-08T16:30:47;99424.63;;;1.73;72.53
64460;BME280;50828;53.756;21.140;2023-01-08T16:36:02;99405.94;;;1.71;72.47
64460;BME280;50828;53.756;21.140;2023-01-08T16:41:11;99403.02;;;1.68;72.68
64460;BME280;50828;53.756;21.140;2023-01-08T16:46:20;99418.87;;;1.63;72.81
64460;BME280;50828;53.756;21.140;2023-01-08T16:51:29;99411.98;;;1.60;72.61
64460;BME280;50828;53.756;21.140;2023-01-08T16:56:38;99401.77;;;1.58;72.67
64460;BME280;50828;53.756;21.140;2023-01-08T17:01:47;99393.32;;;1.55;72.94
64460;BME280;50828;53.756;21.140;2023-01-08T17:06:57;99412.44;;;1.53;73.04
64460;BME280;50828;53.756;21.140;2023-01-08T17:12:06;99400.65;;;1.52;72.91
64460;BME280;50828;53.756;21.140;2023-01-08T17:17:15;99375.85;;;1.51;73.05
64460;BME280;50828;53.756;21.140;2023-01-08T17:22:23;99376.58;;;1.49;72.96
64460;BME280;50828;53.756;21.140;2023-01-08T17:27:35;99380.92;;;1.49;73.17
64460;BME280;50828;53.756;21.140;2023-01-08T17:32:44;99384.06;;;1.46;72.98
64460;BME280;50828;53.756;21.140;2023-01-08T17:37:52;99395.52;;;1.46;73.08
64460;BME280;50828;53.756;21.140;2023-01-08T17:43:01;99385.48;;;1.46;73.09
64460;BME280;50828;53.756;21.140;2023-01-08T17:48:10;99383.40;;;1.45;73.13
64460;BME280;50828;53.756;21.140;2023-01-08T17:53:19;99367.27;;;1.44;73.39
64460;BME280;50828;53.756;21.140;2023-01-08T17:58:28;99350.45;;;1.44;73.19
64460;BME280;50828;53.756;21.140;2023-01-08T18:03:37;99347.52;;;1.44;73.45
64460;BME280;50828;53.756;21.140;2023-01-08T18:08:45;99358.27;;;1.44;73.36
64460;BME280;50828;53.756;21.140;2023-01-08T18:13:59;99372.67;;;1.42;73.31
64460;BME280;50828;53.756;21.140;2023-01-08T18:19:09;99363.48;;;1.42;73.32
64460;BME280;50828;53.756;21.140;2023-01-08T18:24:19;99373.73;;;1.42;73.51
64460;BME280;50828;53.756;21.140;2023-01-08T18:29:28;99363.23;;;1.35;73.49
64460;BME280;50828;53.756;21.140;2023-01-08T18:34:37;99384.52;;;1.41;73.33
64460;BME280;50828;53.756;21.140;2023-01-08T18:39:46;99378.27;;;1.41;73.66
64460;BME280;50828;53.756;21.140;2023-01-08T18:44:56;99377.75;;;1.40;73.50
64460;BME280;50828;53.756;21.140;2023-01-08T18:50:06;99357.27;;;1.41;73.39
64460;BME280;50828;53.756;21.140;2023-01-08T18:55:16;99347.02;;;1.41;73.48
64460;BME280;50828;53.756;21.140;2023-01-08T19:00:25;99336.77;;;1.42;73.43
64460;BME280;50828;53.756;21.140;2023-01-08T19:05:33;99325.33;;;1.41;73.52
64460;BME280;50828;53.756;21.140;2023-01-08T19:10:46;99311.98;;;1.40;73.74
64460;BME280;50828;53.756;21.140;2023-01-08T19:15:55;99304.86;;;1.40;73.74
64460;BME280;50828;53.756;21.140;2023-01-08T19:21:08;99318.92;;;1.40;73.53
64460;BME280;50828;53.756;21.140;2023-01-08T19:26:17;99326.55;;;1.41;73.76
64460;BME280;50828;53.756;21.140;2023-01-08T19:31:27;99330.16;;;1.42;73.59
64460;BME280;50828;53.756;21.140;2023-01-08T19:36:36;99322.69;;;1.43;73.80
64460;BME280;50828;53.756;21.140;2023-01-08T19:41:47;99326.31;;;1.44;73.87
64460;BME280;50828;53.756;21.140;2023-01-08T19:47:13;99323.34;;;1.46;73.93
64460;BME280;50828;53.756;21.140;2023-01-08T19:52:22;99314.83;;;1.47;73.76
64460;BME280;50828;53.756;21.140;2023-01-08T19:57:30;99317.07;;;1.48;73.76
64460;BME280;50828;53.756;21.140;2023-01-08T20:02:38;99316.88;;;1.48;73.69
64460;BME280;50828;53.756;21.140;2023-01-08T20:07:47;99316.52;;;1.49;73.87
64460;BME280;50828;53.756;21.140;2023-01-08T20:12:57;99331.44;;;1.50;73.94
64460;BME280;50828;53.756;21.140;2023-01-08T20:18:07;99330.39;;;1.51;73.81
64460;BME280;50828;53.756;21.140;2023-01-08T20:23:15;99314.59;;;1.50;73.90
64460;BME280;50828;53.756;21.140;2023-01-08T20:28:25;99301.75;;;1.52;74.01
64460;BME280;50828;53.756;21.140;2023-01-08T20:33:34;99280.18;;;1.44;73.86
64460;BME280;50828;53.756;21.140;2023-01-08T20:38:44;99287.16;;;1.51;73.79
64460;BME280;50828;53.756;21.140;2023-01-08T20:43:54;99285.39;;;1.53;74.04
64460;BME280;50828;53.756;21.140;2023-01-08T20:49:05;99279.32;;;1.53;74.17
64460;BME280;50828;53.756;21.140;2023-01-08T20:54:15;99274.44;;;1.54;74.09
64460;BME280;50828;53.756;21.140;2023-01-08T20:59:26;99271.99;;;1.55;74.01
64460;BME280;50828;53.756;21.140;2023-01-08T21:04:34;99275.28;;;1.56;73.99
64460;BME280;50828;53.756;21.140;2023-01-08T21:09:47;99268.84;;;1.57;73.95
64460;BME280;50828;53.756;21.140;2023-01-08T21:14:56;99245.06;;;1.57;73.92
64460;BME280;50828;53.756;21.140;2023-01-08T21:20:06;99228.55;;;1.58;74.18
64460;BME280;50828;53.756;21.140;2023-01-08T21:25:14;99207.74;;;1.58;74.16
64460;BME280;50828;53.756;21.140;2023-01-08T21:30:25;99199.39;;;1.59;74.07
64460;BME280;50828;53.756;21.140;2023-01-08T21:35:34;99189.66;;;1.60;74.09
64460;BME280;50828;53.756;21.140;2023-01-08T21:40:42;99192.05;;;1.62;74.14
64460;BME280;50828;53.756;21.140;2023-01-08T21:45:56;99188.04;;;1.62;74.37
64460;BME280;50828;53.756;21.140;2023-01-08T21:51:08;99177.25;;;1.63;74.24
64460;BME280;50828;53.756;21.140;2023-01-08T21:56:38;99181.23;;;1.64;74.24
64460;BME280;50828;53.756;21.140;2023-01-08T22:01:47;99179.46;;;1.66;74.40
64460;BME280;50828;53.756;21.140;2023-01-08T22:06:55;99168.83;;;1.69;74.25
64460;BME280;50828;53.756;21.140;2023-01-08T22:12:04;99170.18;;;1.71;74.29
64460;BME280;50828;53.756;21.140;2023-01-08T22:17:13;99166.33;;;1.73;74.28
64460;BME280;50828;53.756;21.140;2023-01-08T22:22:22;99170.29;;;1.75;74.18
64460;BME280;50828;53.756;21.140;2023-01-08T22:27:30;99166.45;;;1.76;74.51
64460;BME280;50828;53.756;21.140;2023-01-08T22:32:39;99152.54;;;1.77;74.30
64460;BME280;50828;53.756;21.140;2023-01-08T22:37:47;99140.49;;;1.80;74.22
64460;BME280;50828;53.756;21.140;2023-01-08T22:42:56;99156.60;;;1.81;74.45
64460;BME280;50828;53.756;21.140;2023-01-08T22:48:04;99151.20;;;1.82;74.41
64460;BME280;50828;53.756;21.140;2023-01-08T22:53:13;99146.13;;;1.84;74.50
64460;BME280;50828;53.756;21.140;2023-01-08T22:58:22;99143.86;;;1.85;74.37
64460;BME280;50828;53.756;21.140;2023-01-08T23:03:30;99143.99;;;1.87;74.40
64460;BME280;50828;53.756;21.140;2023-01-08T23:08:39;99133.55;;;1.88;74.31
64460;BME280;50828;53.756;21.140;2023-01-08T23:13:48;99125.00;;;1.90;74.56
64460;BME280;50828;53.756;21.140;2023-01-08T23:18:58;99124.46;;;1.91;74.57
64460;BME280;50828;53.756;21.140;2023-01-08T23:24:13;99113.15;;;1.93;74.57
64460;BME280;50828;53.756;21.140;2023-01-08T23:29:21;99101.64;;;1.94;74.52
64460;BME280;50828;53.756;21.140;2023-01-08T23:34:30;99125.08;;;1.95;74.58
64460;BME280;50828;53.756;21.140;2023-01-08T23:39:38;99111.35;;;1.96;74.58
64460;BME280;50828;53.756;21.140;2023-01-08T23:44:49;99100.41;;;1.96;74.65
64460;BME280;50828;53.756;21.140;2023-01-08T23:49:57;99090.64;;;1.98;74.46
64460;BME280;50828;53.756;21.140;2023-01-08T23:55:06;99072.04;;;1.98;74.52
